sensor_id;sensor_type;location;lat;lon;timestamp;pressure;altitude;pressure_sealevel;temperature;humidity
24620;BME280;12763;55.802;37.404;2023-04-15T00:01:28;100629.13;;;4.67;28.36
24620;BME280;12763;55.802;37.404;2023-04-15T00:03:54;100630.47;;;4.81;27.87
24620;BME280;12763;55.802;37.404;2023-04-15T00:06:20;100637.72;;;4.72;28.25
24620;BME280;12763;55.802;37.404;2023-04-15T00:08:47;100642.88;;;4.75;27.66
24620;BME280;12763;55.802;37.404;2023-04-15T00:11:13;100642.56;;;4.79;28.40
24620;BME280;12763;55.802;37.404;2023-04-15T00:13:39;100639.38;;;4.65;28.51
24620;BME280;12763;55.802;37.404;2023-04-15T00:16:08;100651.00;;;4.50;28.36
24620;BME280;12763;55.802;37.404;2023-04-15T00:18:34;100650.56;;;4.45;29.10
24620;BME280;12763;55.802;37.404;2023-04-15T00:21:00;100652.94;;;4.57;28.25
24620;BME280;12763;55.802;37.404;2023-04-15T00:23:26;100654.56;;;4.50;28.61
24620;BME280;12763;55.802;37.404;2023-04-15T00:25:52;100654.34;;;4.61;27.86
24620;BME280;12763;55.802;37.404;2023-04-15T00:28:17;100660.97;;;4.59;28.41
24620;BME280;12763;55.802;37.404;2023-04-15T00:30:44;100663.88;;;4.57;28.46
24620;BME280;12763;55.802;37.404;2023-04-15T00:33:10;100663.19;;;4.55;28.66
24620;BME280;12763;55.802;37.404;2023-04-15T00:35:36;100660.88;;;4.33;28.93
24620;BME280;12763;55.802;37.404;2023-04-15T00:38:06;100675.31;;;4.43;28.86
24620;BME280;12763;55.802;37.404;2023-04-15T00:40:33;100671.59;;;4.44;28.25
24620;BME280;12763;55.802;37.404;2023-04-15T00:42:59;100682.66;;;4.43;28.99
24620;BME280;12763;55.802;37.404;2023-04-15T00:45:25;100673.50;;;4.34;28.69
24620;BME280;12763;55.802;37.404;2023-04-15T00:47:53;100679.13;;;4.33;29.33
24620;BME280;12763;55.802;37.404;2023-04-15T00:50:20;100686.88;;;4.37;29.61
24620;BME280;12763;55.802;37.404;2023-04-15T00:52:46;100687.94;;;4.17;29.21
24620;BME280;12763;55.802;37.404;2023-04-15T00:55:12;100694.75;;;4.13;29.62
24620;BME280;12763;55.802;37.404;2023-04-15T00:57:38;100694.03;;;4.11;29.44
24620;BME280;12763;55.802;37.404;2023-04-15T01:00:05;100703.53;;;4.07;29.65
24620;BME280;12763;55.802;37.404;2023-04-15T01:02:36;100698.59;;;4.20;29.36
24620;BME280;12763;55.802;37.404;2023-04-15T01:05:03;100702.94;;;4.13;29.85
24620;BME280;12763;55.802;37.404;2023-04-15T01:07:29;100703.94;;;4.12;29.88
24620;BME280;12763;55.802;37.404;2023-04-15T01:09:55;100707.59;;;4.03;29.90
24620;BME280;12763;55.802;37.404;2023-04-15T01:12:23;100711.91;;;3.96;30.10
24620;BME280;12763;55.802;37.404;2023-04-15T01:14:52;100704.19;;;3.82;30.05
24620;BME280;12763;55.802;37.404;2023-04-15T01:17:18;100719.69;;;3.91;30.53
24620;BME280;12763;55.802;37.404;2023-04-15T01:19:44;100717.66;;;3.93;30.06
24620;BME280;12763;55.802;37.404;2023-04-15T01:22:10;100713.09;;;3.84;29.64
24620;BME280;12763;55.802;37.404;2023-04-15T01:24:37;100715.41;;;3.79;29.80
24620;BME280;12763;55.802;37.404;2023-04-15T01:27:04;100716.31;;;3.50;30.77
24620;BME280;12763;55.802;37.404;2023-04-15T01:29:36;100717.13;;;3.80;30.26
24620;BME280;12763;55.802;37.404;2023-04-15T01:32:04;100724.63;;;3.78;30.09
24620;BME280;12763;55.802;37.404;2023-04-15T01:34:49;100726.94;;;3.73;30.51
24620;BME280;12763;55.802;37.404;2023-04-15T01:37:33;100733.25;;;3.64;29.75
24620;BME280;12763;55.802;37.404;2023-04-15T01:39:59;100742.59;;;3.61;30.00
24620;BME280;12763;55.802;37.404;2023-04-15T01:42:25;100740.41;;;3.65;30.21
24620;BME280;12763;55.802;37.404;2023-04-15T01:44:52;100739.28;;;3.48;30.20
24620;BME280;12763;55.802;37.404;2023-04-15T01:47:19;100736.56;;;3.48;30.30
24620;BME280;12763;55.802;37.404;2023-04-15T01:49:47;100747.06;;;3.52;30.52
24620;BME280;12763;55.802;37.404;2023-04-15T01:52:14;100746.78;;;3.55;30.24
24620;BME280;12763;55.802;37.404;2023-04-15T01:54:41;100751.19;;;3.56;29.99
24620;BME280;12763;55.802;37.404;2023-04-15T01:57:08;100745.47;;;3.50;30.63
24620;BME280;12763;55.802;37.404;2023-04-15T01:59:35;100752.81;;;3.49;29.94
24620;BME280;12763;55.802;37.404;2023-04-15T02:02:03;100753.09;;;3.46;30.43
24620;BME280;12763;55.802;37.404;2023-04-15T02:04:31;100764.00;;;3.46;30.70
24620;BME280;12763;55.802;37.404;2023-04-15T02:07:00;100763.56;;;3.41;30.46
24620;BME280;12763;55.802;37.404;2023-04-15T02:09:27;100768.75;;;3.44;30.28
24620;BME280;12763;55.802;37.404;2023-04-15T02:11:54;100769.75;;;3.43;30.16
24620;BME280;12763;55.802;37.404;2023-04-15T02:14:21;100774.06;;;3.46;30.90
24620;BME280;12763;55.802;37.404;2023-04-15T02:16:48;100778.78;;;3.34;30.75
24620;BME280;12763;55.802;37.404;2023-04-15T02:19:16;100783.84;;;3.39;30.63
24620;BME280;12763;55.802;37.404;2023-04-15T02:21:43;100775.19;;;3.43;30.26
24620;BME280;12763;55.802;37.404;2023-04-15T02:24:10;100780.50;;;3.35;30.70
24620;BME280;12763;55.802;37.404;2023-04-15T02:26:41;100783.97;;;3.37;30.77
24620;BME280;12763;55.802;37.404;2023-04-15T02:29:08;100785.53;;;3.40;31.05
24620;BME280;12763;55.802;37.404;2023-04-15T02:31:35;100793.00;;;3.38;30.97
24620;BME280;12763;55.802;37.404;2023-04-15T02:34:05;100789.41;;;3.37;30.81
24620;BME280;12763;55.802;37.404;2023-04-15T02:36:32;100791.28;;;3.46;30.79
24620;BME280;12763;55.802;37.404;2023-04-15T02:39:00;100797.19;;;3.42;30.47
24620;BME280;12763;55.802;37.404;2023-04-15T02:41:28;100798.91;;;3.33;30.75
24620;BME280;12763;55.802;37.404;2023-04-15T02:43:56;100807.97;;;3.34;30.92
24620;BME280;12763;55.802;37.404;2023-04-15T02:46:23;100808.78;;;3.34;30.78
24620;BME280;12763;55.802;37.404;2023-04-15T02:48:51;100815.72;;;3.38;30.80
24620;BME280;12763;55.802;37.404;2023-04-15T02:51:21;100816.84;;;3.36;30.80
24620;BME280;12763;55.802;37.404;2023-04-15T02:53:49;100827.22;;;3.42;30.54
24620;BME280;12763;55.802;37.404;2023-04-15T02:56:16;100828.50;;;3.47;30.61
24620;BME280;12763;55.802;37.404;2023-04-15T02:58:44;100824.59;;;3.40;30.49
24620;BME280;12763;55.802;37.404;2023-04-15T03:01:16;100832.66;;;3.51;30.83
24620;BME280;12763;55.802;37.404;2023-04-15T03:03:43;100838.41;;;3.58;30.89
24620;BME280;12763;55.802;37.404;2023-04-15T03:06:10;100831.94;;;3.59;30.79
24620;BME280;12763;55.802;37.404;2023-04-15T03:08:37;100835.25;;;3.63;30.84
24620;BME280;12763;55.802;37.404;2023-04-15T03:11:04;100840.44;;;3.66;30.99
24620;BME280;12763;55.802;37.404;2023-04-15T03:13:33;100835.69;;;3.68;30.89
24620;BME280;12763;55.802;37.404;2023-04-15T03:16:06;100842.16;;;3.67;30.70
24620;BME280;12763;55.802;37.404;2023-04-15T03:18:33;100847.63;;;3.67;30.74
24620;BME280;12763;55.802;37.404;2023-04-15T03:21:03;100841.13;;;3.48;31.20
24620;BME280;12763;55.802;37.404;2023-04-15T03:23:33;100840.97;;;3.40;30.86
24620;BME280;12763;55.802;37.404;2023-04-15T03:26:01;100846.03;;;3.64;31.09
24620;BME280;12763;55.802;37.404;2023-04-15T03:28:30;100848.19;;;3.70;30.83
24620;BME280;12763;55.802;37.404;2023-04-15T03:30:59;100843.00;;;3.58;31.27
24620;BME280;12763;55.802;37.404;2023-04-15T03:33:26;100850.50;;;3.75;30.80
24620;BME280;12763;55.802;37.404;2023-04-15T03:35:53;100837.56;;;3.77;30.96
24620;BME280;12763;55.802;37.404;2023-04-15T03:38:20;100855.69;;;3.78;30.67
24620;BME280;12763;55.802;37.404;2023-04-15T03:40:47;100845.59;;;3.88;30.71
24620;BME280;12763;55.802;37.404;2023-04-15T03:43:14;100857.09;;;3.63;30.88
24620;BME280;12763;55.802;37.404;2023-04-15T03:45:41;100855.66;;;3.87;30.17
24620;BME280;12763;55.802;37.404;2023-04-15T03:48:08;100853.09;;;3.86;30.49
24620;BME280;12763;55.802;37.404;2023-04-15T03:50:35;100857.97;;;3.92;30.58
24620;BME280;12763;55.802;37.404;2023-04-15T03:53:02;100858.97;;;4.00;29.89
24620;BME280;12763;55.802;37.404;2023-04-15T03:55:29;100864.28;;;3.83;30.80
24620;BME280;12763;55.802;37.404;2023-04-15T03:57:56;100864.84;;;3.96;30.96
24620;BME280;12763;55.802;37.404;2023-04-15T04:00:23;100867.72;;;4.04;30.25
24620;BME280;12763;55.802;37.404;2023-04-15T04:02:50;100874.34;;;3.82;30.36
24620;BME280;12763;55.802;37.404;2023-04-15T04:05:17;100868.75;;;3.84;31.11
24620;BME280;12763;55.802;37.404;2023-04-15T04:07:44;100872.31;;;4.03;30.29
24620;BME280;12763;55.802;37.404;2023-04-15T04:10:11;100865.09;;;4.31;29.53
24620;BME280;12763;55.802;37.404;2023-04-15T04:12:38;100866.53;;;4.35;29.98
24620;BME280;12763;55.802;37.404;2023-04-15T04:15:05;100871.91;;;4.08;30.25
24620;BME280;12763;55.802;37.404;2023-04-15T04:17:32;100874.06;;;3.95;30.34
24620;BME280;12763;55.802;37.404;2023-04-15T04:19:59;100884.41;;;3.82;30.32
24620;BME280;12763;55.802;37.404;2023-04-15T04:22:26;100875.19;;;4.11;30.11
24620;BME280;12763;55.802;37.404;2023-04-15T04:24:53;100880.97;;;3.99;30.13
24620;BME280;12763;55.802;37.404;2023-04-15T04:27:20;100884.34;;;4.39;29.87
24620;BME280;12763;55.802;37.404;2023-04-15T04:29:47;100882.78;;;4.46;29.77
24620;BME280;12763;55.802;37.404;2023-04-15T04:32:15;100881.16;;;4.53;29.92
24620;BME280;12763;55.802;37.404;2023-04-15T04:34:42;100895.28;;;4.49;29.67
24620;BME280;12763;55.802;37.404;2023-04-15T04:37:09;100882.59;;;4.48;29.15
24620;BME280;12763;55.802;37.404;2023-04-15T04:39:36;100885.63;;;4.54;29.53
24620;BME280;12763;55.802;37.404;2023-04-15T04:42:03;100883.41;;;4.77;29.37
24620;BME280;12763;55.802;37.404;2023-04-15T04:44:30;100887.19;;;4.66;29.73
24620;BME280;12763;55.802;37.404;2023-04-15T04:46:57;100881.41;;;4.69;29.75
24620;BME280;12763;55.802;37.404;2023-04-15T04:49:24;100880.91;;;4.84;29.07
24620;BME280;12763;55.802;37.404;2023-04-15T04:51:51;100883.25;;;4.79;29.23
24620;BME280;12763;55.802;37.404;2023-04-15T04:54:19;100882.09;;;4.25;29.54
24620;BME280;12763;55.802;37.404;2023-04-15T04:56:46;100883.19;;;4.51;29.67
24620;BME280;12763;55.802;37.404;2023-04-15T04:59:13;100878.81;;;4.68;29.74
24620;BME280;12763;55.802;37.404;2023-04-15T05:01:40;100888.91;;;4.67;29.14
24620;BME280;12763;55.802;37.404;2023-04-15T05:04:08;100888.34;;;4.54;29.87
24620;BME280;12763;55.802;37.404;2023-04-15T05:06:35;100886.84;;;4.79;29.85
24620;BME280;12763;55.802;37.404;2023-04-15T05:09:02;100889.13;;;4.84;29.61
24620;BME280;12763;55.802;37.404;2023-04-15T05:11:29;100892.03;;;4.82;29.33
24620;BME280;12763;55.802;37.404;2023-04-15T05:13:56;100889.00;;;4.75;29.40
24620;BME280;12763;55.802;37.404;2023-04-15T05:16:25;100892.59;;;4.86;29.41
24620;BME280;12763;55.802;37.404;2023-04-15T05:18:52;100889.41;;;4.81;28.95
24620;BME280;12763;55.802;37.404;2023-04-15T05:21:19;100893.31;;;4.78;29.65
24620;BME280;12763;55.802;37.404;2023-04-15T05:23:46;100894.22;;;5.06;29.49
24620;BME280;12763;55.802;37.404;2023-04-15T05:26:13;100901.81;;;5.12;29.72
24620;BME280;12763;55.802;37.404;2023-04-15T05:28:40;100901.41;;;5.07;29.42
24620;BME280;12763;55.802;37.404;2023-04-15T05:31:07;100902.63;;;4.95;29.75
24620;BME280;12763;55.802;37.404;2023-04-15T05:33:34;100897.41;;;5.01;29.01
24620;BME280;12763;55.802;37.404;2023-04-15T05:36:02;100896.31;;;5.21;28.74
24620;BME280;12763;55.802;37.404;2023-04-15T05:38:29;100904.16;;;5.34;28.87
24620;BME280;12763;55.802;37.404;2023-04-15T05:40:56;100901.53;;;5.42;28.96
24620;BME280;12763;55.802;37.404;2023-04-15T05:43:23;100912.75;;;5.49;28.59
24620;BME280;12763;55.802;37.404;2023-04-15T05:45:50;100907.13;;;5.68;28.48
24620;BME280;12763;55.802;37.404;2023-04-15T05:48:17;100902.88;;;5.56;28.75
24620;BME280;12763;55.802;37.404;2023-04-15T05:50:44;100916.53;;;5.83;28.77
24620;BME280;12763;55.802;37.404;2023-04-15T05:53:11;100909.91;;;5.85;28.56
24620;BME280;12763;55.802;37.404;2023-04-15T05:55:38;100918.13;;;5.58;28.01
24620;BME280;12763;55.802;37.404;2023-04-15T05:58:05;100918.25;;;5.84;28.43
24620;BME280;12763;55.802;37.404;2023-04-15T06:00:32;100918.66;;;5.71;28.84
24620;BME280;12763;55.802;37.404;2023-04-15T06:02:59;100915.69;;;5.82;28.49
24620;BME280;12763;55.802;37.404;2023-04-15T06:05:26;100922.94;;;6.01;28.17
24620;BME280;12763;55.802;37.404;2023-04-15T06:07:53;100917.22;;;6.12;28.05
24620;BME280;12763;55.802;37.404;2023-04-15T06:10:20;100920.34;;;6.17;28.41
24620;BME280;12763;55.802;37.404;2023-04-15T06:12:47;100922.59;;;6.22;27.86
24620;BME280;12763;55.802;37.404;2023-04-15T06:15:14;100926.66;;;6.53;27.78
24620;BME280;12763;55.802;37.404;2023-04-15T06:17:42;100933.66;;;6.73;27.41
24620;BME280;12763;55.802;37.404;2023-04-15T06:20:09;100928.59;;;6.61;27.37
24620;BME280;12763;55.802;37.404;2023-04-15T06:22:37;100932.06;;;6.63;27.67
24620;BME280;12763;55.802;37.404;2023-04-15T06:25:05;100916.88;;;6.76;27.61
24620;BME280;12763;55.802;37.404;2023-04-15T06:27:34;100932.69;;;6.82;27.34
24620;BME280;12763;55.802;37.404;2023-04-15T06:30:01;100934.19;;;6.51;27.60
24620;BME280;12763;55.802;37.404;2023-04-15T06:32:28;100925.41;;;6.30;27.79
24620;BME280;12763;55.802;37.404;2023-04-15T06:34:55;100933.56;;;6.57;26.89
24620;BME280;12763;55.802;37.404;2023-04-15T06:37:22;100931.78;;;6.99;27.37
24620;BME280;12763;55.802;37.404;2023-04-15T06:39:49;100932.25;;;7.21;26.63
24620;BME280;12763;55.802;37.404;2023-04-15T06:42:16;100926.66;;;7.04;26.80
24620;BME280;12763;55.802;37.404;2023-04-15T06:44:43;100934.94;;;6.61;27.24
24620;BME280;12763;55.802;37.404;2023-04-15T06:47:10;100936.34;;;6.91;27.51
24620;BME280;12763;55.802;37.404;2023-04-15T06:49:38;100940.59;;;6.85;27.18
24620;BME280;12763;55.802;37.404;2023-04-15T06:52:06;100940.59;;;6.85;27.21
24620;BME280;12763;55.802;37.404;2023-04-15T06:54:33;100939.13;;;6.99;27.27
24620;BME280;12763;55.802;37.404;2023-04-15T06:57:00;100934.94;;;7.13;26.59
24620;BME280;12763;55.802;37.404;2023-04-15T06:59:27;100937.47;;;7.32;26.77
24620;BME280;12763;55.802;37.404;2023-04-15T07:01:54;100944.66;;;7.33;26.73
24620;BME280;12763;55.802;37.404;2023-04-15T07:04:21;100940.84;;;7.26;26.59
24620;BME280;12763;55.802;37.404;2023-04-15T07:06:48;100946.13;;;6.93;26.02
24620;BME280;12763;55.802;37.404;2023-04-15T07:09:15;100945.63;;;7.24;26.09
24620;BME280;12763;55.802;37.404;2023-04-15T07:11:42;100933.75;;;7.57;25.89
24620;BME280;12763;55.802;37.404;2023-04-15T07:14:09;100943.69;;;7.42;25.95
24620;BME280;12763;55.802;37.404;2023-04-15T07:16:36;100935.19;;;7.27;26.23
24620;BME280;12763;55.802;37.404;2023-04-15T07:19:03;100940.28;;;7.48;25.91
24620;BME280;12763;55.802;37.404;2023-04-15T07:21:30;100933.84;;;7.73;25.94
24620;BME280;12763;55.802;37.404;2023-04-15T07:23:58;100939.69;;;7.70;25.37
24620;BME280;12763;55.802;37.404;2023-04-15T07:26:25;100934.03;;;7.80;25.47
24620;BME280;12763;55.802;37.404;2023-04-15T07:28:51;100937.03;;;8.10;25.36
24620;BME280;12763;55.802;37.404;2023-04-15T07:31:18;100931.75;;;7.59;25.18
24620;BME280;12763;55.802;37.404;2023-04-15T07:33:46;100940.72;;;7.77;25.37
24620;BME280;12763;55.802;37.404;2023-04-15T07:36:13;100944.38;;;8.02;24.86
24620;BME280;12763;55.802;37.404;2023-04-15T07:38:41;100942.53;;;8.26;24.64
24620;BME280;12763;55.802;37.404;2023-04-15T07:41:08;100943.78;;;8.64;24.29
24620;BME280;12763;55.802;37.404;2023-04-15T07:43:35;100929.69;;;8.67;24.36
24620;BME280;12763;55.802;37.404;2023-04-15T07:46:02;100935.38;;;8.74;26.21
24620;BME280;12763;55.802;37.404;2023-04-15T07:48:29;100934.47;;;9.06;24.68
24620;BME280;12763;55.802;37.404;2023-04-15T07:50:56;100932.25;;;8.93;24.50
24620;BME280;12763;55.802;37.404;2023-04-15T07:53:23;100933.91;;;9.18;24.20
24620;BME280;12763;55.802;37.404;2023-04-15T07:55:50;100930.81;;;9.21;24.23
24620;BME280;12763;55.802;37.404;2023-04-15T07:58:17;100922.44;;;9.45;23.93
24620;BME280;12763;55.802;37.404;2023-04-15T08:00:44;100928.97;;;9.44;23.78
24620;BME280;12763;55.802;37.404;2023-04-15T08:03:11;100930.03;;;9.43;24.11
24620;BME280;12763;55.802;37.404;2023-04-15T08:05:38;100929.06;;;9.28;23.77
24620;BME280;12763;55.802;37.404;2023-04-15T08:08:05;100929.44;;;9.64;23.66
24620;BME280;12763;55.802;37.404;2023-04-15T08:10:32;100930.75;;;9.76;23.42
24620;BME280;12763;55.802;37.404;2023-04-15T08:13:00;100931.69;;;9.91;23.19
24620;BME280;12763;55.802;37.404;2023-04-15T08:15:26;100936.59;;;10.12;23.13
24620;BME280;12763;55.802;37.404;2023-04-15T08:17:54;100931.28;;;10.56;22.99
24620;BME280;12763;55.802;37.404;2023-04-15T08:20:21;100926.88;;;10.47;22.67
24620;BME280;12763;55.802;37.404;2023-04-15T08:22:48;100921.84;;;10.50;22.60
24620;BME280;12763;55.802;37.404;2023-04-15T08:25:17;100928.09;;;10.67;22.95
24620;BME280;12763;55.802;37.404;2023-04-15T08:27:45;100922.34;;;10.54;22.67
24620;BME280;12763;55.802;37.404;2023-04-15T08:30:13;100919.75;;;10.52;22.65
24620;BME280;12763;55.802;37.404;2023-04-15T08:32:46;100919.28;;;10.86;22.15
24620;BME280;12763;55.802;37.404;2023-04-15T08:35:13;100918.28;;;10.42;22.35
24620;BME280;12763;55.802;37.404;2023-04-15T08:37:41;100927.94;;;10.83;22.48
24620;BME280;12763;55.802;37.404;2023-04-15T08:40:09;100921.69;;;10.67;22.62
24620;BME280;12763;55.802;37.404;2023-04-15T08:42:41;100916.00;;;10.68;22.23
24620;BME280;12763;55.802;37.404;2023-04-15T08:45:09;100916.25;;;10.58;22.51
24620;BME280;12763;55.802;37.404;2023-04-15T08:47:37;100912.50;;;10.74;22.20
24620;BME280;12763;55.802;37.404;2023-04-15T08:50:08;100914.59;;;10.49;22.15
24620;BME280;12763;55.802;37.404;2023-04-15T08:52:35;100913.31;;;10.60;21.58
24620;BME280;12763;55.802;37.404;2023-04-15T08:55:03;100905.41;;;10.34;21.50
24620;BME280;12763;55.802;37.404;2023-04-15T08:57:32;100904.19;;;10.59;21.56
24620;BME280;12763;55.802;37.404;2023-04-15T09:00:01;100905.66;;;10.47;21.17
24620;BME280;12763;55.802;37.404;2023-04-15T09:02:29;100898.53;;;10.30;21.71
24620;BME280;12763;55.802;37.404;2023-04-15T09:04:57;100907.22;;;10.27;21.24
24620;BME280;12763;55.802;37.404;2023-04-15T09:07:24;100914.31;;;10.82;21.31
24620;BME280;12763;55.802;37.404;2023-04-15T09:09:51;100902.38;;;10.67;21.08
24620;BME280;12763;55.802;37.404;2023-04-15T09:12:18;100903.22;;;11.04;20.72
24620;BME280;12763;55.802;37.404;2023-04-15T09:14:45;100902.47;;;11.40;20.89
24620;BME280;12763;55.802;37.404;2023-04-15T09:17:17;100893.59;;;11.73;20.83
24620;BME280;12763;55.802;37.404;2023-04-15T09:19:45;100899.75;;;11.61;21.06
24620;BME280;12763;55.802;37.404;2023-04-15T09:22:12;100899.44;;;12.00;20.83
24620;BME280;12763;55.802;37.404;2023-04-15T09:24:39;100898.78;;;11.98;21.13
24620;BME280;12763;55.802;37.404;2023-04-15T09:27:09;100894.84;;;12.28;20.81
24620;BME280;12763;55.802;37.404;2023-04-15T09:29:37;100895.38;;;12.38;20.61
24620;BME280;12763;55.802;37.404;2023-04-15T09:32:14;100904.53;;;11.67;20.17
24620;BME280;12763;55.802;37.404;2023-04-15T09:34:42;100899.13;;;11.44;20.46
24620;BME280;12763;55.802;37.404;2023-04-15T09:37:09;100902.81;;;11.66;20.34
24620;BME280;12763;55.802;37.404;2023-04-15T09:39:50;100887.84;;;12.32;19.55
24620;BME280;12763;55.802;37.404;2023-04-15T09:42:18;100902.72;;;12.10;20.06
24620;BME280;12763;55.802;37.404;2023-04-15T09:44:50;100898.94;;;12.53;19.94
24620;BME280;12763;55.802;37.404;2023-04-15T09:47:31;100890.06;;;12.85;19.31
24620;BME280;12763;55.802;37.404;2023-04-15T09:49:59;100885.59;;;13.12;19.71
24620;BME280;12763;55.802;37.404;2023-04-15T09:52:27;100892.66;;;12.93;19.26
24620;BME280;12763;55.802;37.404;2023-04-15T09:54:56;100888.03;;;13.28;18.89
24620;BME280;12763;55.802;37.404;2023-04-15T09:57:24;100895.69;;;13.61;18.93
24620;BME280;12763;55.802;37.404;2023-04-15T09:59:51;100884.91;;;13.85;18.68
24620;BME280;12763;55.802;37.404;2023-04-15T10:02:18;100887.47;;;13.87;18.74
24620;BME280;12763;55.802;37.404;2023-04-15T10:04:49;100893.31;;;14.05;18.65
24620;BME280;12763;55.802;37.404;2023-04-15T10:07:18;100892.94;;;13.67;18.73
24620;BME280;12763;55.802;37.404;2023-04-15T10:09:47;100896.06;;;13.98;18.70
24620;BME280;12763;55.802;37.404;2023-04-15T10:12:18;100890.88;;;13.82;18.75
24620;BME280;12763;55.802;37.404;2023-04-15T10:14:52;100893.22;;;14.33;18.70
24620;BME280;12763;55.802;37.404;2023-04-15T10:17:22;100888.66;;;14.19;18.96
24620;BME280;12763;55.802;37.404;2023-04-15T10:19:53;100896.88;;;14.59;18.59
24620;BME280;12763;55.802;37.404;2023-04-15T10:22:22;100889.19;;;14.55;18.38
24620;BME280;12763;55.802;37.404;2023-04-15T10:24:50;100885.53;;;14.41;18.86
24620;BME280;12763;55.802;37.404;2023-04-15T10:27:19;100883.81;;;14.40;18.53
24620;BME280;12763;55.802;37.404;2023-04-15T10:29:48;100889.63;;;14.85;18.34
24620;BME280;12763;55.802;37.404;2023-04-15T10:32:18;100884.47;;;14.62;18.20
24620;BME280;12763;55.802;37.404;2023-04-15T10:34:50;100881.91;;;15.06;17.59
24620;BME280;12763;55.802;37.404;2023-04-15T10:37:24;100876.16;;;15.01;17.74
24620;BME280;12763;55.802;37.404;2023-04-15T10:39:58;100884.44;;;15.27;17.89
24620;BME280;12763;55.802;37.404;2023-04-15T10:42:33;100882.56;;;15.85;17.07
24620;BME280;12763;55.802;37.404;2023-04-15T10:45:00;100876.25;;;16.41;16.65
24620;BME280;12763;55.802;37.404;2023-04-15T10:47:27;100880.53;;;16.12;17.40
24620;BME280;12763;55.802;37.404;2023-04-15T10:50:00;100882.28;;;16.38;16.92
24620;BME280;12763;55.802;37.404;2023-04-15T10:52:28;100877.06;;;16.79;16.93
24620;BME280;12763;55.802;37.404;2023-04-15T10:55:22;100870.44;;;15.67;16.06
24620;BME280;12763;55.802;37.404;2023-04-15T10:57:52;100881.84;;;16.97;16.37
24620;BME280;12763;55.802;37.404;2023-04-15T11:00:24;100872.88;;;16.95;16.33
24620;BME280;12763;55.802;37.404;2023-04-15T11:02:53;100874.78;;;17.37;16.29
24620;BME280;12763;55.802;37.404;2023-04-15T11:08:11;100859.94;;;18.28;15.96
24620;BME280;12763;55.802;37.404;2023-04-15T11:15:38;100864.34;;;17.33;15.95
24620;BME280;12763;55.802;37.404;2023-04-15T11:18:12;100868.91;;;17.45;16.00
24620;BME280;12763;55.802;37.404;2023-04-15T11:20:41;100866.72;;;17.11;16.09
24620;BME280;12763;55.802;37.404;2023-04-15T11:23:08;100861.84;;;17.07;16.14
24620;BME280;12763;55.802;37.404;2023-04-15T11:25:36;100868.84;;;17.52;15.83
24620;BME280;12763;55.802;37.404;2023-04-15T11:28:04;100864.59;;;17.49;16.20
24620;BME280;12763;55.802;37.404;2023-04-15T11:30:33;100858.19;;;17.24;15.56
24620;BME280;12763;55.802;37.404;2023-04-15T11:33:03;100871.03;;;16.26;16.30
24620;BME280;12763;55.802;37.404;2023-04-15T11:35:31;100865.44;;;16.26;16.44
24620;BME280;12763;55.802;37.404;2023-04-15T11:38:02;100860.47;;;16.91;16.22
24620;BME280;12763;55.802;37.404;2023-04-15T11:40:30;100855.66;;;17.41;16.11
24620;BME280;12763;55.802;37.404;2023-04-15T11:43:18;100854.03;;;16.90;15.95
24620;BME280;12763;55.802;37.404;2023-04-15T11:45:58;100849.09;;;17.72;15.97
24620;BME280;12763;55.802;37.404;2023-04-15T11:48:33;100834.72;;;17.14;15.91
24620;BME280;12763;55.802;37.404;2023-04-15T11:51:01;100849.97;;;16.30;16.35
24620;BME280;12763;55.802;37.404;2023-04-15T11:56:25;100842.94;;;17.09;16.59
24620;BME280;12763;55.802;37.404;2023-04-15T11:58:58;100834.50;;;17.51;16.39
24620;BME280;12763;55.802;37.404;2023-04-15T12:01:39;100841.50;;;17.42;16.14
24620;BME280;12763;55.802;37.404;2023-04-15T12:04:17;100830.78;;;17.39;16.16
24620;BME280;12763;55.802;37.404;2023-04-15T12:06:48;100831.09;;;17.68;16.23
24620;BME280;12763;55.802;37.404;2023-04-15T12:09:17;100832.03;;;17.80;16.13
24620;BME280;12763;55.802;37.404;2023-04-15T12:11:50;100833.34;;;17.77;16.21
24620;BME280;12763;55.802;37.404;2023-04-15T12:16:51;100829.84;;;17.45;16.64
24620;BME280;12763;55.802;37.404;2023-04-15T12:19:34;100826.81;;;17.53;16.71
24620;BME280;12763;55.802;37.404;2023-04-15T12:24:32;100818.41;;;18.01;16.62
24620;BME280;12763;55.802;37.404;2023-04-15T12:27:07;100816.34;;;17.97;16.75
24620;BME280;12763;55.802;37.404;2023-04-15T12:29:35;100824.56;;;17.92;16.92
24620;BME280;12763;55.802;37.404;2023-04-15T12:32:12;100821.06;;;17.96;16.33
24620;BME280;12763;55.802;37.404;2023-04-15T12:34:49;100822.63;;;17.92;16.38
24620;BME280;12763;55.802;37.404;2023-04-15T12:37:15;100821.00;;;18.03;16.44
24620;BME280;12763;55.802;37.404;2023-04-15T12:39:43;100821.16;;;18.19;16.17
24620;BME280;12763;55.802;37.404;2023-04-15T12:42:09;100818.50;;;18.25;16.68
24620;BME280;12763;55.802;37.404;2023-04-15T12:44:37;100810.47;;;18.16;16.63
24620;BME280;12763;55.802;37.404;2023-04-15T12:47:03;100816.00;;;17.39;16.83
24620;BME280;12763;55.802;37.404;2023-04-15T12:49:30;100814.22;;;17.63;16.71
24620;BME280;12763;55.802;37.404;2023-04-15T12:51:58;100818.59;;;17.16;16.97
24620;BME280;12763;55.802;37.404;2023-04-15T12:54:25;100821.31;;;17.22;17.22
24620;BME280;12763;55.802;37.404;2023-04-15T12:56:52;100818.88;;;17.69;16.96
24620;BME280;12763;55.802;37.404;2023-04-15T12:59:19;100818.03;;;17.98;16.80
24620;BME280;12763;55.802;37.404;2023-04-15T13:01:46;100810.28;;;18.00;16.70
24620;BME280;12763;55.802;37.404;2023-04-15T13:04:13;100805.91;;;17.74;16.81
24620;BME280;12763;55.802;37.404;2023-04-15T13:06:39;100812.63;;;17.85;17.18